createdAt,value
2022-10-01T00:00:05.105Z,100358.03
2022-10-01T00:02:31.548Z,100352.84
2022-10-01T00:04:58.156Z,100355.50
2022-10-01T00:07:24.598Z,100344.31
2022-10-01T00:09:51.005Z,100344.34
2022-10-01T00:12:17.476Z,100349.53
2022-10-01T00:14:45.015Z,100352.19
2022-10-01T00:17:11.450Z,100353.94
2022-10-01T00:19:37.886Z,100347.91
2022-10-01T00:22:04.460Z,100346.22
2022-10-01T00:24:30.950Z,100341.88
2022-10-01T00:26:57.716Z,100338.41
2022-10-01T00:29:24.259Z,100341.91
2022-10-01T00:31:50.771Z,100341.03
2022-10-01T00:34:17.248Z,100342.78
2022-10-01T00:36:43.655Z,100337.66
2022-10-01T00:39:11.081Z,100339.38
2022-10-01T00:41:38.043Z,100325.53
2022-10-01T00:44:27.003Z,100328.13
2022-10-01T00:46:53.996Z,100332.47
2022-10-01T00:49:26.868Z,100329.00
2022-10-01T00:51:57.923Z,100330.75
2022-10-01T00:54:31.235Z,100329.00
2022-10-01T00:56:58.427Z,100320.41
2022-10-01T00:59:25.884Z,100313.44
2022-10-01T01:01:52.667Z,100306.50
2022-10-01T01:04:19.300Z,100313.41
2022-10-01T01:06:53.786Z,100313.44
2022-10-01T01:09:21.343Z,100310.03
2022-10-01T01:11:54.913Z,100310.03
2022-10-01T01:14:44.730Z,100301.44
2022-10-01T01:17:23.283Z,100304.94
2022-10-01T01:20:29.303Z,100293.66
2022-10-01T01:23:17.022Z,100291.06
2022-10-01T01:25:49.402Z,100292.81
2022-10-01T01:28:19.293Z,100287.63
2022-10-01T01:30:49.401Z,100285.03
2022-10-01T01:33:18.411Z,100281.63
2022-10-01T01:35:50.081Z,100277.41
2022-10-01T01:38:21.942Z,100275.63
2022-10-01T01:40:51.489Z,100270.47
2022-10-01T01:43:22.329Z,100265.28
2022-10-01T01:45:51.350Z,100261.84
2022-10-01T01:48:17.903Z,100262.78
2022-10-01T01:51:06.427Z,100255.00
2022-10-01T01:53:32.956Z,100261.97
2022-10-01T01:56:00.453Z,100255.97
2022-10-01T01:58:28.264Z,100248.22
2022-10-01T02:00:55.057Z,100246.56
2022-10-01T02:03:24.482Z,100250.09
2022-10-01T02:05:59.094Z,100240.59
2022-10-01T02:08:31.581Z,100238.06
2022-10-01T02:11:29.040Z,100226.91
2022-10-01T02:14:00.196Z,100233.91
2022-10-01T02:16:49.357Z,100231.38
2022-10-01T02:19:21.741Z,100227.97
2022-10-01T02:21:59.922Z,100223.69
2022-10-01T02:24:41.500Z,100223.75
2022-10-01T02:27:13.762Z,100216.03
2022-10-01T02:29:43.314Z,100226.50
2022-10-01T02:32:10.775Z,100228.25
2022-10-01T02:34:37.553Z,100224.03
2022-10-01T02:37:05.674Z,100231.84
2022-10-01T02:39:33.118Z,100229.34
2022-10-01T02:42:00.766Z,100222.47
2022-10-01T02:44:38.153Z,100222.50
2022-10-01T02:47:16.423Z,100223.44
2022-10-01T02:49:43.059Z,100216.56
2022-10-01T02:52:50.102Z,100218.25
2022-10-01T02:55:32.646Z,100213.94
2022-10-01T02:57:59.153Z,100213.94
2022-10-01T03:00:27.166Z,100206.13
2022-10-01T03:02:53.895Z,100205.25
2022-10-01T03:05:20.823Z,100195.75
2022-10-01T03:07:48.085Z,100189.63
2022-10-01T03:10:16.091Z,100185.25
2022-10-01T03:12:44.133Z,100185.25
2022-10-01T03:15:11.909Z,100184.38
2022-10-01T03:17:38.378Z,100185.25
2022-10-01T03:20:05.936Z,100187.84
2022-10-01T03:22:33.395Z,100188.69
2022-10-01T03:25:00.174Z,100182.59
2022-10-01T03:27:26.631Z,100173.94
2022-10-01T03:29:53.115Z,100171.28
2022-10-01T03:32:20.483Z,100159.16
2022-10-01T03:34:47.707Z,100163.47
2022-10-01T03:37:14.523Z,100161.72
2022-10-01T03:39:40.970Z,100146.97
2022-10-01T03:42:07.462Z,100146.97
2022-10-01T03:44:34.124Z,100137.31
2022-10-01T03:47:00.652Z,100137.31
2022-10-01T03:49:27.886Z,100143.47
2022-10-01T03:51:54.450Z,100133.09
2022-10-01T03:54:21.258Z,100126.19
2022-10-01T03:56:48.928Z,100127.03
2022-10-01T03:59:15.817Z,100126.16
2022-10-01T04:01:42.403Z,100126.16
2022-10-01T04:04:09.265Z,100127.03
2022-10-01T04:06:35.721Z,100122.59
2022-10-01T04:09:02.447Z,100121.69
2022-10-01T04:11:29.016Z,100121.72
2022-10-01T04:13:57.840Z,100122.59
2022-10-01T04:16:24.984Z,100112.25
2022-10-01T04:18:51.559Z,100113.94
2022-10-01T04:21:18.053Z,100105.31
2022-10-01T04:23:44.565Z,100106.13
2022-10-01T04:26:11.152Z,100112.16
2022-10-01T04:28:37.666Z,100104.31
2022-10-01T04:31:23.390Z,100104.31
2022-10-01T04:33:50.349Z,100111.19
2022-10-01T04:36:17.393Z,100109.44
2022-10-01T04:38:43.958Z,100103.38
2022-10-01T04:41:10.515Z,100107.69
2022-10-01T04:43:37.044Z,100096.44
2022-10-01T04:46:03.538Z,100103.31
2022-10-01T04:48:29.987Z,100095.41
2022-10-01T04:50:56.439Z,100091.16
2022-10-01T04:53:23.136Z,100090.34
2022-10-01T04:55:49.634Z,100092.94
2022-10-01T04:58:16.143Z,100093.03
2022-10-01T05:00:42.739Z,100084.41
2022-10-01T05:03:09.271Z,100084.47
2022-10-01T05:05:35.881Z,100083.66
2022-10-01T05:08:02.783Z,100073.31
2022-10-01T05:10:29.339Z,100069.88
2022-10-01T05:12:56.589Z,100066.47
2022-10-01T05:15:23.043Z,100065.69
2022-10-01T05:17:49.547Z,100061.38
2022-10-01T05:20:27.595Z,100055.41
2022-10-01T05:22:54.840Z,100056.28
2022-10-01T05:25:21.325Z,100044.94
2022-10-01T05:27:48.081Z,100047.66
2022-10-01T05:30:20.134Z,100048.56
2022-10-01T05:32:55.235Z,100052.94
2022-10-01T05:35:21.828Z,100048.69
2022-10-01T05:37:48.289Z,100047.03
2022-10-01T05:40:15.016Z,100041.84
2022-10-01T05:42:46.164Z,100034.16
2022-10-01T05:45:12.759Z,100031.59
2022-10-01T05:47:42.414Z,100023.00
2022-10-01T05:50:09.384Z,100023.03
2022-10-01T05:52:35.986Z,100023.91
2022-10-01T05:55:02.485Z,100014.56
2022-10-01T05:57:28.997Z,100012.88
2022-10-01T05:59:56.219Z,100012.06
2022-10-01T06:02:22.737Z,100009.50
2022-10-01T06:04:49.200Z,100007.03
2022-10-01T06:07:16.008Z,100002.78
2022-10-01T06:09:42.897Z,100003.75
2022-10-01T06:12:09.754Z,99987.38
2022-10-01T06:14:36.164Z,99984.81
2022-10-01T06:17:02.590Z,99995.34
2022-10-01T06:19:29.012Z,99989.38
2022-10-01T06:21:55.406Z,99993.72
2022-10-01T06:24:21.823Z,99990.28
2022-10-01T06:26:49.302Z,99984.25
2022-10-01T06:29:15.752Z,99979.13
2022-10-01T06:31:42.218Z,99970.50
2022-10-01T06:34:08.678Z,99968.81
2022-10-01T06:36:35.130Z,99968.00
2022-10-01T06:39:01.624Z,99961.13
2022-10-01T06:41:28.036Z,99956.78
2022-10-01T06:43:54.484Z,99956.88
2022-10-01T06:46:20.993Z,99958.56
2022-10-01T06:48:47.430Z,99951.69
2022-10-01T06:51:13.835Z,99949.09
2022-10-01T06:53:40.238Z,99945.66
2022-10-01T06:56:07.577Z,99938.75
2022-10-01T06:58:34.551Z,99935.25
2022-10-01T07:01:03.008Z,99924.03
2022-10-01T07:03:30.987Z,99922.28
2022-10-01T07:06:04.619Z,99911.88
2022-10-01T07:08:31.126Z,99907.50
2022-10-01T07:11:02.744Z,99901.44
2022-10-01T07:13:29.720Z,99897.94
2022-10-01T07:15:56.149Z,99897.94
2022-10-01T07:18:22.649Z,99887.66
2022-10-01T07:20:49.061Z,99889.41
2022-10-01T07:23:16.570Z,99881.66
2022-10-01T07:25:43.490Z,99875.59
2022-10-01T07:28:16.474Z,99873.00
2022-10-01T07:30:58.920Z,99868.66
2022-10-01T07:33:25.565Z,99860.81
2022-10-01T07:35:52.999Z,99855.56
2022-10-01T07:38:20.431Z,99857.38
2022-10-01T07:40:54.567Z,99846.16
2022-10-01T07:43:21.518Z,99853.97
2022-10-01T07:45:49.568Z,99845.31
2022-10-01T07:48:18.138Z,99847.94
2022-10-01T07:50:47.872Z,99849.63
2022-10-01T07:53:14.342Z,99860.94
2022-10-01T07:55:40.794Z,99860.19
2022-10-01T07:58:07.232Z,99857.59
2022-10-01T08:00:34.583Z,99855.06
2022-10-01T08:03:01.203Z,99849.94
2022-10-01T08:05:30.744Z,99849.94
2022-10-01T08:08:15.510Z,99856.94
2022-10-01T08:10:42.095Z,99851.72
2022-10-01T08:13:14.838Z,99853.56
2022-10-01T08:15:53.428Z,99845.88
2022-10-01T08:18:20.703Z,99848.44
2022-10-01T08:20:47.278Z,99842.47
2022-10-01T08:23:15.453Z,99839.91
2022-10-01T08:25:43.277Z,99839.03
2022-10-01T08:28:11.412Z,99835.59
2022-10-01T08:30:42.300Z,99828.66
2022-10-01T08:33:11.391Z,99829.50
2022-10-01T08:35:41.886Z,99817.47
2022-10-01T08:38:08.396Z,99820.06
2022-10-01T08:40:38.068Z,99815.69
2022-10-01T08:43:07.416Z,99823.44
2022-10-01T08:45:46.674Z,99822.59
2022-10-01T08:48:25.390Z,99828.66
2022-10-01T08:51:00.038Z,99828.66
2022-10-01T08:54:01.015Z,99820.06
2022-10-01T08:56:40.768Z,99814.88
2022-10-01T08:59:35.917Z,99815.69
2022-10-01T09:02:02.367Z,99813.06
2022-10-01T09:04:29.195Z,99816.53
2022-10-01T09:07:04.515Z,99826.91
2022-10-01T09:09:51.624Z,99803.56
2022-10-01T09:12:31.625Z,99807.88
2022-10-01T09:15:16.814Z,99797.47
2022-10-01T09:18:01.119Z,99793.13
2022-10-01T09:20:34.034Z,99786.22
2022-10-01T09:23:14.758Z,99784.53
2022-10-01T09:25:43.181Z,99786.31
2022-10-01T09:28:16.264Z,99778.50
2022-10-01T09:30:46.353Z,99774.22
2022-10-01T09:33:18.691Z,99776.84
2022-10-01T09:35:52.704Z,99779.47
2022-10-01T09:38:25.432Z,99768.22
2022-10-01T09:40:55.018Z,99765.69
2022-10-01T09:43:33.819Z,99764.84
2022-10-01T09:46:00.798Z,99757.09
2022-10-01T09:48:32.051Z,99745.81
2022-10-01T09:51:11.189Z,99744.16
2022-10-01T09:53:42.803Z,99739.84
2022-10-01T09:56:16.991Z,99744.19
2022-10-01T09:58:48.076Z,99746.81
2022-10-01T10:01:22.057Z,99729.50
2022-10-01T10:03:56.750Z,99733.84
2022-10-01T10:06:27.781Z,99740.78
2022-10-01T10:08:55.970Z,99741.66
2022-10-01T10:11:28.957Z,99736.53
2022-10-01T10:14:00.046Z,99731.34
2022-10-01T10:16:29.283Z,99738.34
2022-10-01T10:19:02.252Z,99740.97
2022-10-01T10:21:31.455Z,99740.13
2022-10-01T10:24:02.958Z,99734.09
2022-10-01T10:26:42.412Z,99741.13
2022-10-01T10:29:26.205Z,99739.47
2022-10-01T10:31:54.411Z,99724.75
2022-10-01T10:34:26.083Z,99731.75
2022-10-01T10:36:57.437Z,99736.16
2022-10-01T10:39:31.042Z,99731.91
2022-10-01T10:41:59.080Z,99739.72
2022-10-01T10:44:31.951Z,99734.56
2022-10-01T10:47:03.330Z,99742.47
2022-10-01T10:49:38.078Z,99740.75
2022-10-01T10:52:18.261Z,99740.84
2022-10-01T10:54:47.849Z,99746.09
2022-10-01T10:57:21.272Z,99739.25
2022-10-01T10:59:57.691Z,99736.78
2022-10-01T11:02:25.926Z,99736.81
2022-10-01T11:04:53.887Z,99736.88
2022-10-01T11:07:21.947Z,99729.09
2022-10-01T11:10:00.552Z,99730.88
2022-10-01T11:12:36.585Z,99732.72
2022-10-01T11:15:11.037Z,99729.28
2022-10-01T11:17:50.554Z,99732.84
2022-10-01T11:20:30.102Z,99725.09
2022-10-01T11:23:22.248Z,99715.56
2022-10-01T11:26:13.507Z,99731.19
2022-10-01T11:28:58.661Z,99726.00
2022-10-01T11:31:25.022Z,99722.53
2022-10-01T11:34:12.505Z,99726.94
2022-10-01T11:36:45.805Z,99731.31
2022-10-01T11:39:16.668Z,99728.69
2022-10-01T11:41:53.339Z,99729.59
2022-10-01T11:44:26.758Z,99723.56
2022-10-01T11:46:59.210Z,99714.09
2022-10-01T11:49:32.014Z,99719.34
2022-10-01T11:52:14.816Z,99721.09
2022-10-01T11:54:56.064Z,99714.25
2022-10-01T11:57:42.044Z,99723.84
2022-10-01T12:00:10.985Z,99705.72
2022-10-01T12:02:43.557Z,99699.75
2022-10-01T12:05:19.760Z,99698.94
2022-10-01T12:07:55.400Z,99714.69
2022-10-01T12:10:40.515Z,99710.41
2022-10-01T12:13:15.898Z,99725.22
2022-10-01T12:15:56.407Z,99721.88
2022-10-01T12:18:33.560Z,99722.88
2022-10-01T12:21:03.074Z,99717.66
2022-10-01T12:23:32.444Z,99723.84
2022-10-01T12:26:20.327Z,99725.66
2022-10-01T12:28:55.566Z,99724.00
2022-10-01T12:31:41.835Z,99718.84
2022-10-01T12:34:27.032Z,99723.25
2022-10-01T12:37:04.297Z,99726.75
2022-10-01T12:39:34.248Z,99735.44
2022-10-01T12:42:12.890Z,99731.09
2022-10-01T12:44:56.506Z,99741.59
2022-10-01T12:47:37.985Z,99737.22
2022-10-01T12:50:16.469Z,99739.84
2022-10-01T12:52:53.057Z,99741.59
2022-10-01T12:55:32.041Z,99742.50
2022-10-01T12:58:46.383Z,99741.66
2022-10-01T13:01:31.573Z,99746.88
2022-10-01T13:04:17.239Z,99745.13
2022-10-01T13:07:04.934Z,99744.25
2022-10-01T13:09:55.600Z,99746.88
2022-10-01T13:12:41.707Z,99755.56
2022-10-01T13:15:16.100Z,99756.44
2022-10-01T13:17:52.585Z,99761.66
2022-10-01T13:20:44.176Z,99764.28
2022-10-01T13:23:44.916Z,99764.28
2022-10-01T13:26:18.754Z,99766.88
2022-10-01T13:29:26.780Z,99765.16
2022-10-01T13:32:00.705Z,99767.84
2022-10-01T13:34:36.228Z,99769.59
2022-10-01T13:37:36.140Z,99761.75
2022-10-01T13:40:03.695Z,99763.50
2022-10-01T13:42:37.646Z,99767.88
2022-10-01T13:45:08.289Z,99765.28
2022-10-01T13:47:41.236Z,99764.44
2022-10-01T13:50:20.759Z,99773.19
2022-10-01T13:52:47.179Z,99768.81
2022-10-01T13:55:28.529Z,99767.13
2022-10-01T13:58:29.465Z,99768.00
2022-10-01T14:00:57.888Z,99769.72
2022-10-01T14:03:44.540Z,99772.34
2022-10-01T14:06:35.740Z,99767.13
2022-10-01T14:09:27.757Z,99775.84
2022-10-01T14:12:17.815Z,99764.50
2022-10-01T14:15:10.124Z,99771.50
2022-10-01T14:17:36.863Z,99771.50
2022-10-01T14:20:04.179Z,99774.13
2022-10-01T14:22:45.973Z,99778.50
2022-10-01T14:25:53.483Z,99780.25
2022-10-01T14:28:45.215Z,99787.22
2022-10-01T14:31:39.231Z,99772.38
2022-10-01T14:34:20.873Z,99773.25
2022-10-01T14:36:48.560Z,99780.22
2022-10-01T14:39:20.661Z,99787.22
2022-10-01T14:41:49.106Z,99776.72
2022-10-01T14:44:23.116Z,99781.09
2022-10-01T14:46:50.514Z,99785.44
2022-10-01T14:49:24.827Z,99780.22
2022-10-01T14:52:01.416Z,99788.94
2022-10-01T14:54:29.088Z,99790.69
2022-10-01T14:56:55.609Z,99783.69
2022-10-01T14:59:35.560Z,99783.69
2022-10-01T15:02:04.202Z,99776.72
2022-10-01T15:04:30.685Z,99781.94
2022-10-01T15:07:04.291Z,99774.09
2022-10-01T15:09:33.595Z,99780.22
2022-10-01T15:12:00.147Z,99772.34
2022-10-01T15:14:27.035Z,99778.47
2022-10-01T15:16:53.693Z,99773.25
2022-10-01T15:19:21.931Z,99781.97
2022-10-01T15:21:54.137Z,99769.75
2022-10-01T15:24:25.757Z,99776.72
2022-10-01T15:26:53.769Z,99787.22
2022-10-01T15:29:20.274Z,99795.06
2022-10-01T15:31:48.795Z,99785.47
2022-10-01T15:34:17.431Z,99795.91
2022-10-01T15:36:44.009Z,99796.78
2022-10-01T15:39:30.344Z,99809.84
2022-10-01T15:41:57.386Z,99806.38
2022-10-01T15:44:40.861Z,99812.44
2022-10-01T15:47:19.358Z,99809.84
2022-10-01T15:50:10.544Z,99808.09
2022-10-01T15:52:50.958Z,99812.44
2022-10-01T15:55:18.639Z,99821.16
2022-10-01T15:57:45.245Z,99822.03
2022-10-01T16:00:26.382Z,99883.91
2022-10-01T16:02:53.276Z,99893.41
2022-10-01T16:05:25.523Z,99877.66
2022-10-01T16:07:58.283Z,99878.47
2022-10-01T16:10:29.697Z,99868.84
2022-10-01T16:12:56.190Z,99870.56
2022-10-01T16:15:31.808Z,99879.16
2022-10-01T16:18:02.260Z,99886.03
2022-10-01T16:20:37.513Z,99887.69
2022-10-01T16:23:44.517Z,99890.22
2022-10-01T16:26:28.659Z,99888.38
2022-10-01T16:28:57.026Z,99897.91
2022-10-01T16:31:24.912Z,99908.31
2022-10-01T16:33:51.558Z,99911.78
2022-10-01T16:36:24.349Z,99918.66
2022-10-01T16:38:51.413Z,99912.56
2022-10-01T16:41:22.355Z,99922.13
2022-10-01T16:43:53.412Z,99923.00
2022-10-01T16:46:19.890Z,99928.22
2022-10-01T16:48:49.498Z,99941.22
2022-10-01T16:51:15.891Z,99936.81
2022-10-01T16:53:45.904Z,99953.31
2022-10-01T16:56:12.663Z,99963.72
2022-10-01T16:58:39.200Z,99966.31
2022-10-01T17:01:10.046Z,99970.53
2022-10-01T17:03:36.665Z,99977.44
2022-10-01T17:06:03.583Z,99978.22
2022-10-01T17:08:30.025Z,99980.81
2022-10-01T17:10:59.915Z,99978.13
2022-10-01T17:13:28.254Z,99985.84
2022-10-01T17:15:54.726Z,99984.03
2022-10-01T17:18:21.362Z,99990.09
2022-10-01T17:20:48.058Z,100004.75
2022-10-01T17:23:16.728Z,100008.19
2022-10-01T17:25:43.722Z,100016.78
2022-10-01T17:28:20.193Z,100025.34
2022-10-01T17:30:48.258Z,100027.06
2022-10-01T17:33:19.055Z,100039.09
2022-10-01T17:35:48.578Z,100046.00
2022-10-01T17:38:14.990Z,100045.94
2022-10-01T17:40:42.319Z,100059.78
2022-10-01T17:43:13.762Z,100058.84
2022-10-01T17:45:40.271Z,100066.59
2022-10-01T17:48:06.822Z,100065.69
2022-10-01T17:50:33.531Z,100063.00
2022-10-01T17:53:00.742Z,100075.09
2022-10-01T17:55:27.875Z,100079.41
2022-10-01T17:57:54.337Z,100083.72
2022-10-01T18:00:20.766Z,100086.28
2022-10-01T18:02:47.218Z,100096.63
2022-10-01T18:05:14.927Z,100095.72
2022-10-01T18:07:42.317Z,100097.44
2022-10-01T18:10:11.754Z,100099.13
2022-10-01T18:12:38.267Z,100098.22
2022-10-01T18:15:05.250Z,100109.41
2022-10-01T18:17:32.461Z,100110.25
2022-10-01T18:19:59.055Z,100113.66
2022-10-01T18:22:26.540Z,100129.25
2022-10-01T18:24:54.147Z,100120.56
2022-10-01T18:27:20.605Z,100129.19
2022-10-01T18:29:48.042Z,100128.28
2022-10-01T18:32:21.284Z,100141.22
2022-10-01T18:34:54.799Z,100137.69
2022-10-01T18:37:40.380Z,100142.06
2022-10-01T18:40:16.694Z,100133.31
2022-10-01T18:43:09.292Z,100131.53
2022-10-01T18:45:44.991Z,100134.06
2022-10-01T18:48:18.682Z,100132.34
2022-10-01T18:51:25.615Z,100135.72
2022-10-01T18:54:04.203Z,100141.78
2022-10-01T18:56:33.389Z,100146.94
2022-10-01T18:59:16.926Z,100152.16
2022-10-01T19:01:50.192Z,100146.94
2022-10-01T19:04:26.964Z,100155.59
2022-10-01T19:07:06.912Z,100165.09
2022-10-01T19:09:46.581Z,100179.84
2022-10-01T19:12:42.431Z,100171.13
2022-10-01T19:15:43.947Z,100174.56
2022-10-01T19:18:38.472Z,100184.09
2022-10-01T19:21:23.817Z,100183.22
2022-10-01T19:24:15.209Z,100191.88
2022-10-01T19:26:52.046Z,100194.41
2022-10-01T19:29:40.000Z,100190.13
2022-10-01T19:32:13.679Z,100203.06
2022-10-01T19:35:03.675Z,100210.00
2022-10-01T19:37:41.169Z,100206.47
2022-10-01T19:40:17.132Z,100205.59
2022-10-01T19:43:10.812Z,100214.22
2022-10-01T19:48:33.159Z,100228.03
2022-10-01T19:51:06.844Z,100228.91
2022-10-01T19:53:37.445Z,100236.66
2022-10-01T19:56:04.791Z,100241.88
2022-10-01T19:58:32.229Z,100246.97
2022-10-01T20:01:00.923Z,100246.97
2022-10-01T20:03:38.125Z,100257.34
2022-10-01T20:06:05.938Z,100267.72
2022-10-01T20:08:43.850Z,100265.06
2022-10-01T20:11:14.705Z,100273.72
2022-10-01T20:14:37.111Z,100278.91
2022-10-01T20:17:10.739Z,100275.41
2022-10-01T20:19:42.725Z,100294.50
2022-10-01T20:22:31.074Z,100304.00
2022-10-01T20:25:11.609Z,100306.59
2022-10-01T20:28:13.622Z,100311.78
2022-10-01T20:31:06.411Z,100319.56
2022-10-01T20:34:00.617Z,100322.22
2022-10-01T20:36:40.487Z,100321.31
2022-10-01T20:39:21.356Z,100334.31
2022-10-01T20:41:53.134Z,100329.00
2022-10-01T20:44:22.780Z,100335.06
2022-10-01T20:46:56.003Z,100335.06
2022-10-01T20:49:30.494Z,100335.06
2022-10-01T20:52:44.657Z,100337.69
2022-10-01T20:55:19.582Z,100348.06
2022-10-01T20:57:49.095Z,100343.72
2022-10-01T21:00:24.153Z,100356.69
2022-10-01T21:02:59.374Z,100350.59
2022-10-01T21:05:25.780Z,100355.81
2022-10-01T21:07:58.960Z,100358.38
2022-10-01T21:10:33.941Z,100358.34
2022-10-01T21:13:19.239Z,100364.41
2022-10-01T21:15:58.447Z,100364.38
2022-10-01T21:19:03.231Z,100368.66
2022-10-01T21:21:42.140Z,100377.31
2022-10-01T21:24:37.999Z,100375.44
2022-10-01T21:27:46.891Z,100378.03
2022-10-01T21:30:16.289Z,100379.75
2022-10-01T21:33:06.694Z,100390.13
2022-10-01T21:35:49.299Z,100391.88
2022-10-01T21:38:25.995Z,100390.97
2022-10-01T21:40:59.333Z,100398.75
2022-10-01T21:43:57.557Z,100397.00
2022-10-01T21:46:54.725Z,100407.38
2022-10-01T21:49:39.456Z,100410.84
2022-10-01T21:52:24.679Z,100416.03
2022-10-01T21:55:06.303Z,100422.94
2022-10-01T21:58:05.818Z,100433.31
2022-10-01T22:00:32.565Z,100433.31
2022-10-01T22:03:27.633Z,100439.41
2022-10-01T22:06:07.169Z,100438.53
2022-10-01T22:09:14.278Z,100448.91
2022-10-01T22:11:47.034Z,100457.56
2022-10-01T22:14:16.702Z,100449.75
2022-10-01T22:16:57.573Z,100461.91
2022-10-01T22:19:37.426Z,100458.47
2022-10-01T22:22:21.431Z,100461.94
2022-10-01T22:24:55.887Z,100471.47
2022-10-01T22:27:28.346Z,100469.72
2022-10-01T22:30:02.497Z,100463.63
2022-10-01T22:32:40.765Z,100476.69
2022-10-01T22:35:14.661Z,100475.81
2022-10-01T22:37:47.210Z,100474.88
2022-10-01T22:40:18.293Z,100496.53
2022-10-01T22:42:52.147Z,100488.75
2022-10-01T22:45:20.581Z,100488.75
2022-10-01T22:48:05.327Z,100488.75
2022-10-01T22:50:55.460Z,100484.47
2022-10-01T22:54:18.098Z,100482.66
2022-10-01T22:56:57.364Z,100494.81
2022-10-01T22:59:32.555Z,100498.28
2022-10-01T23:02:19.995Z,100497.38
2022-10-01T23:04:58.577Z,100499.06
2022-10-01T23:07:51.079Z,100505.13
2022-10-01T23:10:31.718Z,100501.66
2022-10-01T23:13:05.441Z,100506.81
2022-10-01T23:15:47.064Z,100506.75
2022-10-01T23:18:36.445Z,100521.50
2022-10-01T23:21:08.862Z,100521.44
2022-10-01T23:23:35.372Z,100521.41
2022-10-01T23:26:08.738Z,100527.44
2022-10-01T23:28:54.347Z,100526.56
2022-10-01T23:31:20.737Z,100527.41
2022-10-01T23:33:51.278Z,100533.47
2022-10-01T23:36:32.754Z,100531.75
2022-10-01T23:39:21.406Z,100525.66
2022-10-01T23:41:53.310Z,100530.88
2022-10-01T23:44:33.902Z,100544.72
2022-10-01T23:47:04.682Z,100549.94
2022-10-01T23:49:32.957Z,100548.19
2022-10-01T23:52:15.493Z,100554.19
2022-10-01T23:54:49.388Z,100554.19
2022-10-01T23:57:29.214Z,100557.63
